John H Macmillan Jr — WDB9907 — position and weather

sailwx.info

Track history (hours):
 
Tides and Currents Weather Stations Pressure Air Temp Water Temp Dewpoint Dewpoint Depression Visibility Wind Speed Wind Dir Waves Ship Positions

John H Macmillan Jr

Owner: American River Transportation Company, St Louis, MO. More information available from US FCC via Universal Licensing System and Coast Guard Vessel Documentation Center.

Last reported at 2016-May-26 03:33 UTC. Time now 2016-May-29 02:02 UTC.
Position N 32°42' W 091°04'.

Length 55 m.

Type: Towing. MMSI: 366984920.

Date/timePositionNaut miles runAvg speedWind from/ knotsBaromVisibWave heightAir tempDewpointWater temp
2016-May-26 03:33N 32°42' W 091°04'2 1.9
2016-May-26 02:34N 32°41' W 091°05'4 3.8
2016-May-26 01:33N 32°39' W 091°09'5 4.7
2016-May-26 00:34N 32°35' W 091°07'5 4.5
2016-May-25 23:34N 32°30' W 091°07'1 1.1
2016-May-25 22:33N 32°29' W 091°07'4 3.8
2016-May-25 21:34N 32°27' W 091°04'4 4.3
2016-May-25 20:34N 32°24' W 090°59'3 3.4
2016-May-25 19:34N 32°21' W 090°58'1 0.8
2016-May-25 18:34N 32°21' W 090°57'0 0.0
2016-May-25 17:33N 32°21' W 090°57'3 3.1
2016-May-25 16:34N 32°18' W 090°55'5 4.8
2016-May-25 15:34N 32°14' W 090°59'5 5.0
2016-May-25 14:34N 32°10' W 090°60'5 4.0
2016-May-25 13:13N 32°08' W 091°06'3 4.4
2016-May-25 12:29N 32°05' W 091°04'4 4.7
2016-May-25 11:34N 32°01' W 091°05'6 4.5
2016-May-25 10:13N 31°58' W 091°11'  
2016-May-21 12:33N 32°00' W 091°05'7 7.1
2016-May-21 11:33N 32°07' W 091°07'5 5.2
2016-May-21 10:33N 32°08' W 091°01'8 8.1
2016-May-21 09:33N 32°16' W 090°58'5 5.1
2016-May-21 08:33N 32°21' W 090°57'7 6.6
2016-May-21 07:33N 32°26' W 091°02'8 6.8
2016-May-21 06:22N 32°33' W 091°06'  
Track history (hours):
 
Tides and Currents Weather Stations Pressure Air Temp Water Temp Dewpoint Dewpoint Depression Visibility Wind Speed Wind Dir Waves Ship Positions

John H Macmillan Jr

Owner: American River Transportation Company, St Louis, MO. More information available from US FCC via Universal Licensing System and Coast Guard Vessel Documentation Center.

Last reported at 2016-May-26 03:33 UTC. Time now 2016-May-29 02:02 UTC.
Position N 32°42' W 091°04'.

Length 55 m.

Type: Towing. MMSI: 366984920.

Date/timePositionNaut miles runAvg speedWind from/ knotsBaromVisibWave heightAir tempDewpointWater temp
2016-May-26 03:33N 32°42' W 091°04'2 1.9
2016-May-26 02:34N 32°41' W 091°05'4 3.8
2016-May-26 01:33N 32°39' W 091°09'5 4.7
2016-May-26 00:34N 32°35' W 091°07'5 4.5
2016-May-25 23:34N 32°30' W 091°07'1 1.1
2016-May-25 22:33N 32°29' W 091°07'4 3.8
2016-May-25 21:34N 32°27' W 091°04'4 4.3
2016-May-25 20:34N 32°24' W 090°59'3 3.4
2016-May-25 19:34N 32°21' W 090°58'1 0.8
2016-May-25 18:34N 32°21' W 090°57'0 0.0
2016-May-25 17:33N 32°21' W 090°57'3 3.1
2016-May-25 16:34N 32°18' W 090°55'5 4.8
2016-May-25 15:34N 32°14' W 090°59'5 5.0
2016-May-25 14:34N 32°10' W 090°60'5 4.0
2016-May-25 13:13N 32°08' W 091°06'3 4.4
2016-May-25 12:29N 32°05' W 091°04'4 4.7
2016-May-25 11:34N 32°01' W 091°05'6 4.5
2016-May-25 10:13N 31°58' W 091°11'  
2016-May-21 12:33N 32°00' W 091°05'7 7.1
2016-May-21 11:33N 32°07' W 091°07'5 5.2
2016-May-21 10:33N 32°08' W 091°01'8 8.1
2016-May-21 09:33N 32°16' W 090°58'5 5.1
2016-May-21 08:33N 32°21' W 090°57'7 6.6
2016-May-21 07:33N 32°26' W 091°02'8 6.8
2016-May-21 06:22N 32°33' W 091°06'  

Dump ship's entire track history